createdAt,value
2022-09-20T00:00:44.860Z,102303.78
2022-09-20T00:03:48.264Z,102298.88
2022-09-20T00:06:50.834Z,102216.97
2022-09-20T00:09:54.752Z,102285.72
2022-09-20T00:12:57.384Z,102313.66
2022-09-20T00:15:59.974Z,102312.34
2022-09-20T00:19:03.902Z,102292.78
2022-09-20T00:22:06.431Z,102291.31
2022-09-20T00:25:10.739Z,102251.25
2022-09-20T00:28:13.279Z,102309.72
2022-09-20T00:31:16.188Z,102311.38
2022-09-20T00:34:36.547Z,102300.19
2022-09-20T00:37:40.330Z,102292.28
2022-09-20T00:40:44.849Z,102297.88
2022-09-20T00:43:47.935Z,102277.72
2022-09-20T00:46:50.419Z,102298.56
2022-09-20T00:49:54.603Z,102292.47
2022-09-20T00:52:59.013Z,102299.88
2022-09-20T00:56:05.050Z,102307.59
2022-09-20T00:59:10.461Z,102298.59
2022-09-20T01:02:14.288Z,102271.97
2022-09-20T01:05:16.921Z,102301.66
2022-09-20T01:08:21.956Z,102300.06
2022-09-20T01:11:26.051Z,102281.16
2022-09-20T01:14:28.601Z,102255.69
2022-09-20T01:17:32.463Z,102291.50
2022-09-20T01:20:36.760Z,102266.22
2022-09-20T01:23:48.018Z,102294.94
2022-09-20T01:26:59.175Z,102302.81
2022-09-20T01:30:06.890Z,102302.34
2022-09-20T01:33:11.551Z,102315.50
2022-09-20T01:36:14.992Z,102272.28
2022-09-20T01:39:19.992Z,102257.84
2022-09-20T01:42:24.055Z,102280.50
2022-09-20T01:45:29.452Z,102301.66
2022-09-20T01:48:34.450Z,102300.50
2022-09-20T01:52:07.333Z,102303.63
2022-09-20T01:55:32.071Z,102263.88
2022-09-20T01:59:23.167Z,102303.25
2022-09-20T02:02:57.421Z,102291.28
2022-09-20T02:06:20.623Z,102295.56
2022-09-20T02:09:44.601Z,102252.00
2022-09-20T02:12:54.056Z,102283.41
2022-09-20T02:16:12.148Z,102267.81
2022-09-20T02:19:47.729Z,102283.09
2022-09-20T02:22:57.384Z,102289.81
2022-09-20T02:26:06.374Z,102298.00
2022-09-20T02:29:17.288Z,102254.50
2022-09-20T02:32:29.668Z,102274.56
2022-09-20T02:35:40.160Z,102269.25
2022-09-20T02:38:45.872Z,102250.22
2022-09-20T02:41:53.621Z,102232.63
2022-09-20T02:45:00.193Z,102269.09
2022-09-20T02:48:04.644Z,102253.16
2022-09-20T02:51:13.163Z,102260.22
2022-09-20T02:54:19.766Z,102283.22
2022-09-20T02:57:24.868Z,102289.13
2022-09-20T03:00:28.783Z,102276.31
2022-09-20T03:03:37.686Z,102244.69
2022-09-20T03:06:44.294Z,102274.00
2022-09-20T03:09:49.071Z,102233.19
2022-09-20T03:12:58.418Z,102270.69
2022-09-20T03:16:04.139Z,102281.03
2022-09-20T03:19:12.931Z,102292.19
2022-09-20T03:22:22.937Z,102243.38
2022-09-20T03:25:36.910Z,102278.91
2022-09-20T03:28:48.002Z,102284.19
2022-09-20T03:32:00.875Z,102287.31
2022-09-20T03:35:07.935Z,102281.44
2022-09-20T03:38:30.389Z,102296.88
2022-09-20T03:42:04.767Z,102275.03
2022-09-20T03:45:28.532Z,102292.78
2022-09-20T03:48:58.283Z,102277.31
2022-09-20T03:52:03.419Z,102285.00
2022-09-20T03:55:20.330Z,102304.75
2022-09-20T03:58:32.916Z,102302.78
2022-09-20T04:01:45.162Z,102299.34
2022-09-20T04:04:49.266Z,102299.03
2022-09-20T04:07:56.600Z,102307.22
2022-09-20T04:11:03.013Z,102275.53
2022-09-20T04:14:11.532Z,102309.22
2022-09-20T04:17:24.371Z,102320.88
2022-09-20T04:20:32.755Z,102292.63
2022-09-20T04:23:40.487Z,102318.44
2022-09-20T04:26:47.562Z,102312.03
2022-09-20T04:29:53.479Z,102310.84
2022-09-20T04:32:59.662Z,102268.16
2022-09-20T04:36:24.269Z,102309.72
2022-09-20T04:39:34.864Z,102303.50
2022-09-20T04:43:08.955Z,102305.13
2022-09-20T04:46:35.585Z,102310.53
2022-09-20T04:50:12.874Z,102317.94
2022-09-20T04:53:26.058Z,102326.81
2022-09-20T04:56:30.393Z,102331.56
2022-09-20T04:59:39.898Z,102331.56
2022-09-20T05:03:09.635Z,102304.13
2022-09-20T05:06:18.013Z,102319.72
2022-09-20T05:09:45.801Z,102317.28
2022-09-20T05:13:05.195Z,102308.41
2022-09-20T05:16:13.974Z,102307.09
2022-09-20T05:19:24.820Z,102308.41
2022-09-20T05:22:46.932Z,102312.03
2022-09-20T05:26:08.317Z,102312.88
2022-09-20T05:29:14.272Z,102304.00
2022-09-20T05:32:20.225Z,102308.75
2022-09-20T05:35:24.233Z,102321.56
2022-09-20T05:38:30.751Z,102315.66
2022-09-20T05:41:37.713Z,102321.88
2022-09-20T05:44:54.891Z,102301.81
2022-09-20T05:48:01.734Z,102322.19
2022-09-20T05:51:08.102Z,102257.66
2022-09-20T05:54:26.940Z,102312.00
2022-09-20T05:57:36.142Z,102295.25
2022-09-20T06:00:40.634Z,102321.06
2022-09-20T06:03:45.459Z,102307.09
2022-09-20T06:06:52.589Z,102292.94
2022-09-20T06:10:22.835Z,102326.47
2022-09-20T06:13:34.597Z,102341.91
2022-09-20T06:16:43.139Z,102327.28
2022-09-20T06:19:47.868Z,102332.91
2022-09-20T06:22:51.163Z,102271.97
2022-09-20T06:25:56.054Z,102358.19
2022-09-20T06:29:00.490Z,102353.59
2022-09-20T06:32:03.111Z,102320.41
2022-09-20T06:35:07.809Z,102351.69
2022-09-20T06:38:38.827Z,102333.88
2022-09-20T06:41:41.377Z,102365.97
2022-09-20T06:44:43.998Z,102351.72
2022-09-20T06:47:46.715Z,102344.53
2022-09-20T06:50:52.180Z,102357.25
2022-09-20T06:53:54.914Z,102326.78
2022-09-20T06:56:57.703Z,102354.06
2022-09-20T07:00:00.248Z,102337.78
2022-09-20T07:03:02.817Z,102365.28
2022-09-20T07:06:06.977Z,102367.41
2022-09-20T07:09:10.943Z,102359.88
2022-09-20T07:12:13.695Z,102361.97
2022-09-20T07:15:16.506Z,102367.97
2022-09-20T07:18:19.097Z,102363.03
2022-09-20T07:21:23.003Z,102360.78
2022-09-20T07:24:25.523Z,102330.19
2022-09-20T07:27:29.510Z,102362.97
2022-09-20T07:30:32.112Z,102365.19
2022-09-20T07:33:34.650Z,102334.25
2022-09-20T07:36:38.543Z,102309.81
2022-09-20T07:39:41.722Z,102308.28
2022-09-20T07:42:45.923Z,102368.47
2022-09-20T07:45:54.816Z,102379.34
2022-09-20T07:48:57.379Z,102366.63
2022-09-20T07:52:01.275Z,102390.44
2022-09-20T07:55:05.959Z,102332.69
2022-09-20T07:58:08.486Z,102401.53
2022-09-20T08:01:13.283Z,102398.44
2022-09-20T08:04:15.951Z,102383.34
2022-09-20T08:07:21.951Z,102395.25
2022-09-20T08:10:26.828Z,102389.09
2022-09-20T08:16:52.312Z,102414.25
2022-09-20T08:19:54.879Z,102407.50
2022-09-20T08:23:21.932Z,102406.59
2022-09-20T08:26:24.545Z,102391.69
2022-09-20T08:29:27.105Z,102398.94
2022-09-20T08:32:29.687Z,102418.38
2022-09-20T08:35:32.303Z,102425.44
2022-09-20T08:42:00.986Z,102434.41
2022-09-20T08:45:04.524Z,102403.06
2022-09-20T08:48:08.233Z,102437.00
2022-09-20T08:51:11.435Z,102437.22
2022-09-20T08:54:15.990Z,102437.50
2022-09-20T08:57:19.303Z,102420.69
2022-09-20T09:00:23.547Z,102431.34
2022-09-20T09:03:26.116Z,102394.78
2022-09-20T09:06:28.667Z,102390.78
2022-09-20T09:09:41.110Z,102439.50
2022-09-20T09:12:48.792Z,102436.09
2022-09-20T09:15:54.581Z,102437.56
2022-09-20T09:18:57.726Z,102411.88
2022-09-20T09:22:00.540Z,102377.72
2022-09-20T09:25:23.952Z,102448.88
2022-09-20T09:28:31.361Z,102453.66
2022-09-20T09:31:34.006Z,102411.59
2022-09-20T09:34:38.676Z,102407.59
2022-09-20T09:37:41.547Z,102398.94
2022-09-20T09:40:50.434Z,102442.75
2022-09-20T09:44:00.384Z,102383.72
2022-09-20T09:47:03.114Z,102406.72
2022-09-20T09:50:09.894Z,102413.34
2022-09-20T09:53:15.150Z,102449.88
2022-09-20T09:56:27.230Z,102381.91
2022-09-20T09:59:57.652Z,102439.41
2022-09-20T10:03:25.230Z,102438.53
2022-09-20T10:06:30.079Z,102415.13
2022-09-20T10:09:46.333Z,102418.69
2022-09-20T10:12:57.919Z,102403.09
2022-09-20T10:16:03.739Z,102389.88
2022-09-20T10:19:08.954Z,102443.78
2022-09-20T10:22:13.491Z,102445.72
2022-09-20T10:25:23.857Z,102456.78
2022-09-20T10:28:35.799Z,102451.34
2022-09-20T10:31:45.401Z,102465.84
2022-09-20T10:35:17.364Z,102448.41
2022-09-20T10:38:23.458Z,102464.38
2022-09-20T10:41:59.088Z,102467.22
2022-09-20T10:45:10.900Z,102456.22
2022-09-20T10:48:18.029Z,102438.69
2022-09-20T10:51:25.143Z,102466.03
2022-09-20T10:54:34.839Z,102461.78
2022-09-20T10:57:56.427Z,102439.72
2022-09-20T11:01:02.573Z,102431.03
2022-09-20T11:04:18.959Z,102442.59
2022-09-20T11:07:25.323Z,102459.22
2022-09-20T11:10:29.646Z,102405.88
2022-09-20T11:13:34.938Z,102469.34
2022-09-20T11:16:41.709Z,102462.03
2022-09-20T11:19:49.391Z,102465.88
2022-09-20T11:22:53.688Z,102463.69
2022-09-20T11:25:57.498Z,102442.31
2022-09-20T11:29:03.907Z,102443.34
2022-09-20T11:32:13.871Z,102471.38
2022-09-20T11:35:30.252Z,102420.44
2022-09-20T11:38:36.432Z,102469.91
2022-09-20T11:41:38.956Z,102411.50
2022-09-20T11:44:42.251Z,102460.53
2022-09-20T11:47:55.052Z,102437.97
2022-09-20T11:51:19.320Z,102464.00
2022-09-20T11:54:36.150Z,102458.31
2022-09-20T11:57:38.703Z,102452.31
2022-09-20T12:00:42.414Z,102450.00
2022-09-20T12:03:46.946Z,102410.81
2022-09-20T12:06:57.923Z,102486.09
2022-09-20T12:10:01.326Z,102478.06
2022-09-20T12:13:05.535Z,102471.31
2022-09-20T12:16:09.213Z,102476.00
2022-09-20T12:19:13.998Z,102480.63
2022-09-20T12:22:18.053Z,102490.34
2022-09-20T12:25:37.138Z,102488.91
2022-09-20T12:28:40.314Z,102484.16
2022-09-20T12:31:48.432Z,102490.69
2022-09-20T12:34:52.619Z,102487.50
2022-09-20T12:37:55.482Z,102486.81
2022-09-20T12:41:02.299Z,102471.47
2022-09-20T12:44:07.181Z,102483.06
2022-09-20T12:47:18.240Z,102480.06
2022-09-20T12:50:39.759Z,102471.88
2022-09-20T12:53:42.371Z,102437.47
2022-09-20T12:56:46.596Z,102477.81
2022-09-20T12:59:56.050Z,102472.91
2022-09-20T13:03:00.150Z,102482.13
2022-09-20T13:06:26.245Z,102475.66
2022-09-20T13:09:28.808Z,102475.28
2022-09-20T13:12:32.127Z,102474.78
2022-09-20T13:15:35.548Z,102481.75
2022-09-20T13:18:38.115Z,102470.56
2022-09-20T13:21:51.647Z,102473.19
2022-09-20T13:24:57.769Z,102484.25
2022-09-20T13:28:06.014Z,102477.09
2022-09-20T13:31:24.710Z,102420.75
2022-09-20T13:34:27.452Z,102487.91
2022-09-20T13:37:32.292Z,102467.47
2022-09-20T13:40:35.546Z,102470.53
2022-09-20T13:43:38.719Z,102445.78
2022-09-20T13:46:44.637Z,102467.00
2022-09-20T13:49:47.187Z,102468.78
2022-09-20T13:52:52.017Z,102438.00
2022-09-20T13:55:55.333Z,102483.78
2022-09-20T13:58:59.064Z,102447.25
2022-09-20T14:02:01.727Z,102458.88
2022-09-20T14:05:05.658Z,102428.75
2022-09-20T14:08:12.024Z,102475.56
2022-09-20T14:11:16.916Z,102473.94
2022-09-20T14:14:22.251Z,102470.66
2022-09-20T14:17:25.259Z,102456.78
2022-09-20T14:20:27.895Z,102470.00
2022-09-20T14:23:31.811Z,102446.63
2022-09-20T14:26:36.126Z,102471.38
2022-09-20T14:29:40.687Z,102402.91
2022-09-20T14:32:45.878Z,102466.06
2022-09-20T14:35:50.230Z,102462.94
2022-09-20T14:38:55.524Z,102462.13
2022-09-20T14:41:58.029Z,102460.41
2022-09-20T14:45:00.578Z,102455.22
2022-09-20T14:48:09.601Z,102456.03
2022-09-20T14:51:23.018Z,102455.91
2022-09-20T14:54:29.795Z,102454.19
2022-09-20T14:57:32.820Z,102453.78
2022-09-20T15:00:48.288Z,102449.31
2022-09-20T15:03:50.970Z,102455.28
2022-09-20T15:06:53.598Z,102445.69
2022-09-20T15:09:57.427Z,102453.84
2022-09-20T15:12:59.936Z,102428.34
2022-09-20T15:16:02.847Z,102418.44
2022-09-20T15:19:05.982Z,102413.78
2022-09-20T15:22:09.422Z,102445.03
2022-09-20T15:25:17.639Z,102456.22
2022-09-20T15:28:20.342Z,102452.69
2022-09-20T15:31:22.894Z,102454.19
2022-09-20T15:34:25.443Z,102435.56
2022-09-20T15:37:28.012Z,102402.69
2022-09-20T15:40:32.457Z,102451.84
2022-09-20T15:43:35.071Z,102435.47
2022-09-20T15:46:37.733Z,102390.63
2022-09-20T15:49:40.250Z,102407.47
2022-09-20T15:52:43.828Z,102410.22
2022-09-20T15:55:47.740Z,102446.63
2022-09-20T15:58:51.175Z,102416.63
2022-09-20T16:01:53.776Z,102439.91
2022-09-20T16:04:56.413Z,102426.25
2022-09-20T16:07:59.071Z,102443.91
2022-09-20T16:11:03.005Z,102381.59
2022-09-20T16:14:05.667Z,102445.91
2022-09-20T16:17:08.190Z,102439.13
2022-09-20T16:20:10.608Z,102441.84
2022-09-20T16:23:14.642Z,102456.75
2022-09-20T16:26:19.520Z,102447.97
2022-09-20T16:29:23.401Z,102460.44
2022-09-20T16:32:25.944Z,102460.25
2022-09-20T16:35:28.495Z,102462.50
2022-09-20T16:38:30.987Z,102470.41
2022-09-20T16:41:34.880Z,102476.78
2022-09-20T16:44:38.631Z,102463.50
2022-09-20T16:47:41.197Z,102475.69
2022-09-20T16:50:47.298Z,102477.50
2022-09-20T16:53:49.980Z,102485.31
2022-09-20T16:56:53.898Z,102475.28
2022-09-20T16:59:56.457Z,102476.38
2022-09-20T17:02:59.107Z,102420.50
2022-09-20T17:06:02.951Z,102454.41
2022-09-20T17:09:05.908Z,102462.22
2022-09-20T17:12:10.181Z,102501.38
2022-09-20T17:15:13.569Z,102506.28
2022-09-20T17:18:16.115Z,102498.81
2022-09-20T17:21:19.816Z,102512.19
2022-09-20T17:24:23.132Z,102451.72
2022-09-20T17:27:27.021Z,102464.00
2022-09-20T17:30:31.079Z,102492.69
2022-09-20T17:33:34.050Z,102471.19
2022-09-20T17:36:39.094Z,102506.31
2022-09-20T17:39:44.118Z,102510.88
2022-09-20T17:42:51.217Z,102488.19
2022-09-20T17:45:53.565Z,102526.13
2022-09-20T17:48:56.811Z,102502.94
2022-09-20T17:51:59.523Z,102518.41
2022-09-20T17:55:02.185Z,102521.78
2022-09-20T17:58:06.096Z,102521.69
2022-09-20T18:01:12.893Z,102532.00
2022-09-20T18:04:15.818Z,102502.22
2022-09-20T18:07:18.303Z,102497.50
2022-09-20T18:10:20.786Z,102539.31
2022-09-20T18:13:25.724Z,102536.75
2022-09-20T18:16:28.760Z,102489.47
2022-09-20T18:19:33.712Z,102536.34
2022-09-20T18:22:36.312Z,102545.50
2022-09-20T18:25:52.790Z,102530.00
2022-09-20T18:28:58.011Z,102519.94
2022-09-20T18:32:01.244Z,102552.38
2022-09-20T18:35:03.795Z,102517.13
2022-09-20T18:38:07.078Z,102525.94
2022-09-20T18:41:09.960Z,102556.22
2022-09-20T18:44:14.622Z,102552.88
2022-09-20T18:47:17.172Z,102555.78
2022-09-20T18:50:20.766Z,102567.09
2022-09-20T18:53:25.156Z,102565.00
2022-09-20T18:56:28.690Z,102551.44
2022-09-20T18:59:32.920Z,102564.44
2022-09-20T19:02:42.731Z,102539.81
2022-09-20T19:05:45.284Z,102552.00
2022-09-20T19:08:51.105Z,102572.06
2022-09-20T19:11:56.115Z,102569.47
2022-09-20T19:15:06.691Z,102578.06
2022-09-20T19:18:21.573Z,102499.28
2022-09-20T19:21:28.908Z,102567.88
2022-09-20T19:25:16.292Z,102582.28
2022-09-20T19:28:19.315Z,102578.81
2022-09-20T19:31:24.918Z,102588.53
2022-09-20T19:34:32.165Z,102568.13
2022-09-20T19:37:36.541Z,102592.16
2022-09-20T19:40:44.188Z,102599.06
2022-09-20T19:43:59.519Z,102581.81
2022-09-20T19:47:21.895Z,102606.31
2022-09-20T19:50:29.349Z,102599.91
2022-09-20T19:53:32.514Z,102607.31
2022-09-20T19:56:37.441Z,102612.28
2022-09-20T19:59:40.474Z,102564.22
2022-09-20T20:02:45.701Z,102626.59
2022-09-20T20:05:51.683Z,102580.81
2022-09-20T20:08:56.085Z,102618.34
2022-09-20T20:12:01.797Z,102631.84
2022-09-20T20:15:09.643Z,102625.25
2022-09-20T20:18:19.156Z,102617.50
2022-09-20T20:21:26.745Z,102554.97
2022-09-20T20:24:31.562Z,102590.00
2022-09-20T20:27:34.169Z,102632.00
2022-09-20T20:30:37.007Z,102618.97
2022-09-20T20:33:40.897Z,102609.63
2022-09-20T20:36:43.651Z,102567.34
2022-09-20T20:39:46.161Z,102626.72
2022-09-20T20:42:48.668Z,102592.47
2022-09-20T20:45:51.199Z,102645.16
2022-09-20T20:48:55.076Z,102587.06
2022-09-20T20:51:59.498Z,102637.25
2022-09-20T20:55:02.043Z,102600.09
2022-09-20T20:58:04.737Z,102647.59
2022-09-20T21:01:11.942Z,102630.19
2022-09-20T21:04:16.799Z,102647.97
2022-09-20T21:07:19.310Z,102645.34
2022-09-20T21:10:21.915Z,102653.09
2022-09-20T21:13:24.421Z,102651.25
2022-09-20T21:16:28.557Z,102653.56
2022-09-20T21:19:32.482Z,102609.78
2022-09-20T21:22:34.976Z,102612.59
2022-09-20T21:25:37.514Z,102640.59
2022-09-20T21:28:41.342Z,102640.25
2022-09-20T21:31:44.460Z,102652.41
2022-09-20T21:34:48.347Z,102646.19
2022-09-20T21:37:50.867Z,102613.91
2022-09-20T21:40:57.376Z,102658.69
2022-09-20T21:44:00.997Z,102648.63
2022-09-20T21:47:03.835Z,102662.97
2022-09-20T21:50:09.278Z,102667.06
2022-09-20T21:53:11.832Z,102661.81
2022-09-20T21:56:15.473Z,102670.84
2022-09-20T21:59:18.474Z,102673.97
2022-09-20T22:02:21.006Z,102670.34
2022-09-20T22:05:25.304Z,102670.50
2022-09-20T22:08:27.922Z,102667.88
2022-09-20T22:11:31.148Z,102669.03
2022-09-20T22:14:34.956Z,102671.50
2022-09-20T22:17:37.470Z,102658.34
2022-09-20T22:20:41.707Z,102670.53
2022-09-20T22:23:44.645Z,102656.34
2022-09-20T22:26:48.055Z,102649.59
2022-09-20T22:29:50.901Z,102640.69
2022-09-20T22:32:53.638Z,102650.38
2022-09-20T22:35:57.734Z,102677.38
2022-09-20T22:39:00.520Z,102642.75
2022-09-20T22:42:03.301Z,102675.03
2022-09-20T22:45:07.136Z,102672.53
2022-09-20T22:48:09.870Z,102669.91
2022-09-20T22:51:14.643Z,102647.19
2022-09-20T22:54:17.415Z,102667.06
2022-09-20T22:57:20.149Z,102683.53
2022-09-20T23:00:22.901Z,102665.91
2022-09-20T23:03:25.694Z,102643.63
2022-09-20T23:06:30.726Z,102680.91
2022-09-20T23:09:33.487Z,102681.91
2022-09-20T23:12:36.269Z,102692.44
2022-09-20T23:15:39.041Z,102684.38
2022-09-20T23:18:41.782Z,102677.97
2022-09-20T23:21:45.956Z,102683.22
2022-09-20T23:24:48.750Z,102680.06
2022-09-20T23:27:51.493Z,102685.13
2022-09-20T23:30:54.461Z,102667.81
2022-09-20T23:33:58.174Z,102689.56
2022-09-20T23:37:02.414Z,102691.75
2022-09-20T23:40:05.771Z,102692.09
2022-09-20T23:43:08.561Z,102668.56
2022-09-20T23:46:11.804Z,102694.59
2022-09-20T23:49:14.627Z,102676.47
2022-09-20T23:52:18.746Z,102683.56
2022-09-20T23:55:21.511Z,102688.13
2022-09-20T23:58:24.242Z,102694.38
